Time;durP1;ratioP1;P1;durP2;ratioP2;P2;SDS_P1;SDS_P2;PMS_P1;PMS_P2;Temp;Humidity;BMP_temperature;BMP_pressure;BME280_temperature;BME280_humidity;BME280_pressure;Samples;Min_cycle;Max_cycle;Signal;HPM_P1;HPM_P2
2022/03/28 00:01:56;;;;;;;48.25;15.73;;;7.00;99.90;;;;;;5012954;28;20057;-74
2022/03/28 00:04:22;;;;;;;122.68;16.33;;;7.00;99.90;;;;;;4961427;28;247562;-73
2022/03/28 00:06:49;;;;;;;35.38;14.88;;;7.00;99.90;;;;;;4992252;28;20463;-75
2022/03/28 00:09:15;;;;;;;61.45;16.35;;;7.00;99.90;;;;;;4999564;28;116196;-74
2022/03/28 00:11:42;;;;;;;41.05;15.32;;;7.00;99.90;;;;;;4962632;28;20076;-74
2022/03/28 00:14:08;;;;;;;96.93;15.30;;;7.10;99.90;;;;;;4993589;28;250361;-75
2022/03/28 00:16:35;;;;;;;57.55;14.68;;;7.10;99.90;;;;;;4972085;28;20050;-74
2022/03/28 00:19:01;;;;;;;106.32;15.77;;;7.00;99.90;;;;;;5022629;28;262650;-74
2022/03/28 00:21:27;;;;;;;154.38;16.40;;;7.00;99.90;;;;;;4989551;28;20548;-75
2022/03/28 00:23:53;;;;;;;76.20;15.20;;;7.00;99.90;;;;;;4987757;28;271999;-74
2022/03/28 00:26:20;;;;;;;44.80;15.50;;;7.00;99.90;;;;;;4991707;28;20041;-74
2022/03/28 00:28:46;;;;;;;50.17;14.95;;;7.00;99.90;;;;;;5002899;28;20423;-75
2022/03/28 00:31:13;;;;;;;59.58;16.95;;;7.00;99.90;;;;;;4977056;28;20037;-74
2022/03/28 00:33:40;;;;;;;110.22;16.30;;;7.00;99.90;;;;;;5001849;28;20050;-74
2022/03/28 00:36:06;;;;;;;55.40;15.10;;;7.00;99.90;;;;;;4979157;28;102733;-73
2022/03/28 00:38:33;;;;;;;49.33;15.63;;;7.00;99.90;;;;;;4979921;28;20053;-74
2022/03/28 00:40:59;;;;;;;69.57;16.45;;;7.00;99.90;;;;;;4975880;28;258153;-75
2022/03/28 00:43:27;;;;;;;41.25;16.80;;;6.90;99.90;;;;;;4999802;28;20047;-75
2022/03/28 00:45:53;;;;;;;63.65;19.05;;;6.90;99.90;;;;;;4969626;28;127894;-75
2022/03/28 00:48:19;;;;;;;48.25;19.48;;;7.00;99.90;;;;;;5033713;28;20581;-74
2022/03/28 00:50:45;;;;;;;46.47;22.35;;;7.00;99.90;;;;;;4974179;28;23563;-75
2022/03/28 00:53:13;;;;;;;139.20;29.08;;;7.00;99.90;;;;;;5000407;28;20060;-75
2022/03/28 00:55:40;;;;;;;175.48;32.10;;;7.00;99.90;;;;;;4969016;28;220049;-74
2022/03/28 00:58:06;;;;;;;94.47;30.30;;;6.80;99.90;;;;;;4997355;28;20391;-74
2022/03/28 01:00:32;;;;;;;57.17;30.27;;;6.80;99.90;;;;;;4975415;28;274730;-74
2022/03/28 01:02:59;;;;;;;62.53;29.40;;;6.80;99.90;;;;;;4995185;28;20073;-74
2022/03/28 01:05:26;;;;;;;87.32;35.47;;;6.90;99.90;;;;;;4958098;28;186811;-74
2022/03/28 01:07:53;;;;;;;133.80;34.20;;;6.90;99.90;;;;;;5013947;28;20065;-74
2022/03/28 01:10:19;;;;;;;108.60;33.40;;;6.90;99.90;;;;;;4967838;28;21366;-75
2022/03/28 01:12:46;;;;;;;69.40;33.55;;;6.80;99.90;;;;;;4993788;28;20057;-75
2022/03/28 01:15:15;;;;;;;170.07;32.22;;;6.90;99.90;;;;;;4969819;28;132458;-74
2022/03/28 01:20:28;;;;;;;126.55;31.08;;;6.80;99.90;;;;;;4972381;28;277535;-74
2022/03/28 01:22:54;;;;;;;99.38;30.92;;;6.90;99.90;;;;;;5006896;28;20060;-74
2022/03/28 01:25:26;;;;;;;75.57;32.40;;;6.80;99.90;;;;;;4992196;28;142114;-74
2022/03/28 01:27:57;;;;;;;89.72;30.23;;;6.90;99.90;;;;;;4997204;28;20415;-74
2022/03/28 01:30:23;;;;;;;58.35;29.77;;;6.90;99.90;;;;;;4973301;28;23295;-74
2022/03/28 01:32:52;;;;;;;67.07;30.92;;;6.80;99.90;;;;;;5012449;28;20065;-74
2022/03/28 01:35:38;;;;;;;69.55;29.75;;;6.80;99.90;;;;;;4944893;28;247110;-74
2022/03/28 01:38:11;;;;;;;99.55;29.80;;;6.80;99.90;;;;;;5004034;28;20506;-74
2022/03/28 01:40:40;;;;;;;69.60;29.83;;;6.80;99.90;;;;;;4975928;28;113349;-74
2022/03/28 01:43:07;;;;;;;53.95;28.33;;;6.70;99.90;;;;;;5001219;28;20057;-74
2022/03/28 01:45:33;;;;;;;47.55;26.50;;;6.70;99.90;;;;;;4989623;28;191021;-74
2022/03/28 01:47:59;;;;;;;57.75;27.77;;;6.70;99.90;;;;;;5033008;28;21043;-74
2022/03/28 01:50:25;;;;;;;44.30;25.63;;;6.80;99.90;;;;;;4950686;28;122852;-74
2022/03/28 01:52:52;;;;;;;44.35;26.48;;;6.70;99.90;;;;;;5000170;28;20054;-74
2022/03/28 01:55:19;;;;;;;41.08;24.33;;;6.70;99.90;;;;;;4967324;28;266918;-74
2022/03/28 01:57:45;;;;;;;43.30;25.55;;;6.80;99.90;;;;;;4993930;28;20061;-74
2022/03/28 02:00:17;;;;;;;49.17;27.35;;;6.80;99.90;;;;;;4984381;28;41974;-74
2022/03/28 02:02:44;;;;;;;;;;;6.80;99.90;;;;;;4988466;28;20058;-75
2022/03/28 02:05:11;;;;;;;34.53;21.20;;;6.90;99.90;;;;;;4972707;28;108502;-74
2022/03/28 02:07:41;;;;;;;34.15;19.90;;;6.80;99.90;;;;;;4997143;28;20062;-75
2022/03/28 02:10:09;;;;;;;40.10;18.73;;;6.80;99.90;;;;;;4964340;28;230385;-74
2022/03/28 02:12:36;;;;;;;28.00;17.55;;;6.80;99.90;;;;;;5005176;28;20701;-74
2022/03/28 02:15:05;;;;;;;27.85;18.40;;;6.80;99.90;;;;;;4966027;28;195323;-74
2022/03/28 02:17:32;;;;;;;27.38;17.52;;;6.80;99.90;;;;;;4987091;28;20058;-74
2022/03/28 02:19:58;;;;;;;30.33;18.77;;;6.90;99.90;;;;;;4970667;28;120437;-74
2022/03/28 02:22:24;;;;;;;36.63;21.70;;;6.80;99.90;;;;;;5006910;28;20050;-74
2022/03/28 02:24:51;;;;;;;32.80;21.55;;;6.80;99.90;;;;;;4964065;28;167555;-74
2022/03/28 02:27:17;;;;;;;41.67;24.67;;;6.90;99.90;;;;;;5003825;28;20054;-73
2022/03/28 02:29:43;;;;;;;32.65;21.33;;;6.80;99.90;;;;;;4963869;28;218381;-73
2022/03/28 02:32:10;;;;;;;31.27;17.58;;;6.90;99.90;;;;;;5013185;28;20058;-74
2022/03/28 02:34:37;;;;;;;24.35;14.90;;;6.80;99.90;;;;;;4963889;28;184215;-73
2022/03/28 02:37:03;;;;;;;27.27;15.10;;;6.70;99.90;;;;;;4989796;28;20076;-73
2022/03/28 02:39:29;;;;;;;26.20;14.80;;;6.70;99.90;;;;;;4950674;28;220828;-73
2022/03/28 02:41:56;;;;;;;25.98;15.05;;;6.60;99.90;;;;;;5010663;28;20072;-73
2022/03/28 02:44:22;;;;;;;27.30;16.77;;;6.60;99.90;;;;;;4976537;28;255282;-73
2022/03/28 02:46:49;;;;;;;38.85;17.77;;;6.50;99.90;;;;;;4975135;28;20053;-73
2022/03/28 02:49:18;;;;;;;24.85;16.75;;;6.40;99.90;;;;;;5000766;28;254092;-74
2022/03/28 02:51:44;;;;;;;33.30;17.42;;;6.40;99.90;;;;;;4970630;28;20038;-74
2022/03/28 02:54:11;;;;;;;29.98;17.05;;;6.40;99.90;;;;;;5028134;28;63856;-74
2022/03/28 02:56:37;;;;;;;24.52;16.35;;;6.40;99.90;;;;;;4993570;28;20049;-73
2022/03/28 02:59:03;;;;;;;34.20;16.88;;;6.40;99.90;;;;;;4987656;28;253923;-74
2022/03/28 03:01:30;;;;;;;29.33;17.00;;;6.40;99.90;;;;;;4991587;28;20041;-73
2022/03/28 03:03:56;;;;;;;27.30;16.43;;;6.40;99.90;;;;;;4970271;28;267896;-74
2022/03/28 03:06:22;;;;;;;26.02;16.40;;;6.40;99.90;;;;;;4990837;28;20061;-73
2022/03/28 03:08:48;;;;;;;25.67;15.65;;;6.40;99.90;;;;;;5006943;28;257782;-73
2022/03/28 03:11:14;;;;;;;26.63;17.00;;;6.40;99.90;;;;;;4993094;28;20045;-74
2022/03/28 03:13:40;;;;;;;26.50;15.88;;;6.40;99.90;;;;;;4997937;28;20054;-75
2022/03/28 03:16:06;;;;;;;24.27;16.85;;;6.40;99.90;;;;;;4956974;28;152155;-74
2022/03/28 03:18:32;;;;;;;25.15;16.58;;;6.40;99.90;;;;;;5004121;28;20054;-74
2022/03/28 03:20:59;;;;;;;29.23;16.73;;;6.30;99.90;;;;;;4979862;28;191942;-74
2022/03/28 03:23:27;;;;;;;24.02;16.58;;;6.30;99.90;;;;;;5007108;28;20054;-74
2022/03/28 03:25:53;;;;;;;26.92;15.60;;;6.30;99.90;;;;;;4988694;28;254338;-74
2022/03/28 03:28:20;;;;;;;26.55;16.30;;;6.30;99.90;;;;;;5007513;28;20073;-75
2022/03/28 03:30:48;;;;;;;26.13;15.48;;;6.30;99.90;;;;;;4974507;28;219841;-74
2022/03/28 03:33:14;;;;;;;25.05;14.07;;;6.30;99.90;;;;;;5005142;28;20053;-74
2022/03/28 03:35:41;;;;;;;31.15;14.25;;;6.40;99.90;;;;;;4969381;28;133702;-74
2022/03/28 03:38:07;;;;;;;25.38;14.52;;;6.40;99.90;;;;;;5005787;28;20053;-73
2022/03/28 03:40:33;;;;;;;23.15;14.43;;;6.30;99.90;;;;;;4962759;28;219518;-74
2022/03/28 03:42:59;;;;;;;25.63;15.65;;;6.40;99.90;;;;;;4998905;28;20156;-74
2022/03/28 03:45:26;;;;;;;23.90;15.43;;;6.40;99.90;;;;;;4975776;28;90416;-75
2022/03/28 03:47:52;;;;;;;25.17;15.35;;;6.40;99.90;;;;;;4990252;28;20065;-73
2022/03/28 03:50:18;;;;;;;22.98;14.50;;;6.40;99.90;;;;;;4961733;28;252194;-74
2022/03/28 03:52:44;;;;;;;27.75;14.90;;;6.40;99.90;;;;;;5016419;28;20041;-74
2022/03/28 03:55:10;;;;;;;22.38;14.80;;;6.50;99.90;;;;;;4973602;28;118261;-73
2022/03/28 03:57:37;;;;;;;22.50;14.07;;;6.50;99.90;;;;;;5018446;28;20053;-73
2022/03/28 04:00:05;;;;;;;23.27;15.68;;;6.50;99.90;;;;;;4971697;28;171068;-74
2022/03/28 04:02:31;;;;;;;25.10;14.82;;;6.50;99.90;;;;;;5007129;28;20062;-75
2022/03/28 04:04:57;;;;;;;25.58;14.23;;;6.40;99.90;;;;;;4961876;28;252435;-74
2022/03/28 04:07:23;;;;;;;22.70;14.10;;;6.30;99.90;;;;;;5010096;28;20041;-74
2022/03/28 04:09:49;;;;;;;22.08;12.93;;;6.30;99.90;;;;;;4968776;28;208084;-74
2022/03/28 04:12:15;;;;;;;25.25;14.32;;;6.30;99.90;;;;;;5010518;28;20510;-74
2022/03/28 04:14:42;;;;;;;20.10;13.45;;;6.30;99.90;;;;;;4950062;28;228785;-74
2022/03/28 04:17:08;;;;;;;23.42;14.05;;;6.40;99.90;;;;;;4998010;28;20055;-74
2022/03/28 04:19:34;;;;;;;19.50;13.18;;;6.30;99.90;;;;;;4999317;28;102798;-74
2022/03/28 04:22:00;;;;;;;21.60;13.25;;;6.30;99.90;;;;;;5015200;28;20117;-75
2022/03/28 04:24:26;;;;;;;25.90;14.55;;;6.30;99.90;;;;;;4969606;28;139138;-74
2022/03/28 04:26:52;;;;;;;27.95;14.48;;;6.20;99.90;;;;;;5028525;28;20054;-74
2022/03/28 04:29:19;;;;;;;23.05;13.35;;;6.20;99.90;;;;;;4995539;28;254429;-74
2022/03/28 04:31:45;;;;;;;21.60;12.95;;;6.10;99.90;;;;;;4992859;28;20414;-74
2022/03/28 04:34:11;;;;;;;24.35;14.00;;;6.10;99.90;;;;;;4996807;28;59444;-74
2022/03/28 04:36:38;;;;;;;23.55;13.02;;;6.10;99.90;;;;;;4947568;28;20116;-75
2022/03/28 04:39:05;;;;;;;25.57;13.87;;;6.10;99.90;;;;;;4988498;28;269187;-75
2022/03/28 04:41:32;;;;;;;22.45;13.35;;;6.10;99.90;;;;;;4974696;28;20050;-74
2022/03/28 04:43:59;;;;;;;27.08;12.73;;;6.10;99.90;;;;;;4987004;28;268417;-73
2022/03/28 04:46:25;;;;;;;26.60;13.27;;;6.10;99.90;;;;;;4992105;28;20042;-74
2022/03/28 04:48:51;;;;;;;19.20;12.75;;;6.20;99.90;;;;;;5017315;28;264726;-73
2022/03/28 04:51:17;;;;;;;21.48;13.27;;;6.20;99.90;;;;;;4953075;28;20520;-74
2022/03/28 04:53:43;;;;;;;28.92;12.77;;;6.20;99.90;;;;;;5002602;28;20054;-74
2022/03/28 04:56:09;;;;;;;28.92;13.30;;;6.20;99.90;;;;;;4970912;28;244244;-74
2022/03/28 04:58:35;;;;;;;21.55;11.77;;;6.20;99.90;;;;;;5001379;28;20061;-74
2022/03/28 05:01:02;;;;;;;32.47;13.52;;;6.10;99.90;;;;;;4963061;28;35746;-74
2022/03/28 05:03:28;;;;;;;29.40;12.50;;;6.10;99.90;;;;;;5002153;28;20264;-75
2022/03/28 05:05:54;;;;;;;21.83;11.48;;;6.00;99.90;;;;;;4963697;28;98561;-75
2022/03/28 05:08:20;;;;;;;21.05;10.10;;;6.00;99.90;;;;;;5002026;28;20050;-74
2022/03/28 05:10:46;;;;;;;24.58;10.88;;;6.00;99.90;;;;;;4971828;28;238091;-74
2022/03/28 05:13:13;;;;;;;25.00;11.43;;;6.00;99.90;;;;;;5002651;28;20157;-75
2022/03/28 05:15:39;;;;;;;21.83;10.57;;;6.00;99.90;;;;;;4980940;28;271717;-74
2022/03/28 05:18:05;;;;;;;19.38;11.07;;;5.90;99.90;;;;;;5001094;28;20057;-74
2022/03/28 05:20:31;;;;;;;27.67;11.68;;;5.90;99.90;;;;;;4979055;28;77970;-75
2022/03/28 05:22:57;;;;;;;44.85;12.05;;;5.80;99.90;;;;;;5010421;28;20088;-75
2022/03/28 05:25:23;;;;;;;40.05;11.30;;;5.80;99.90;;;;;;4968808;28;206226;-74
2022/03/28 05:27:49;;;;;;;29.20;10.48;;;5.70;99.90;;;;;;5014647;28;20049;-74
2022/03/28 05:30:17;;;;;;;18.85;9.10;;;5.70;99.90;;;;;;4969829;28;20434;-74
2022/03/28 05:32:43;;;;;;;18.58;8.00;;;5.60;99.90;;;;;;5005952;28;20053;-74
2022/03/28 05:35:10;;;;;;;25.05;9.73;;;5.50;99.90;;;;;;4966893;28;140195;-74
2022/03/28 05:37:36;;;;;;;19.30;9.98;;;5.50;99.90;;;;;;5010071;28;20435;-74
2022/03/28 05:40:04;;;;;;;27.45;11.38;;;5.60;99.90;;;;;;4982178;28;50343;-75
2022/03/28 05:42:30;;;;;;;27.17;12.52;;;5.60;99.90;;;;;;5007531;28;20057;-74
2022/03/28 05:44:57;;;;;;;28.90;13.23;;;5.60;99.90;;;;;;4974115;28;191235;-74
2022/03/28 05:47:23;;;;;;;26.35;12.45;;;5.60;99.90;;;;;;4977425;28;20057;-74
2022/03/28 05:49:49;;;;;;;28.30;13.18;;;5.70;99.90;;;;;;4969403;28;20048;-74
2022/03/28 05:52:15;;;;;;;29.25;14.45;;;5.70;99.90;;;;;;5003912;28;20418;-74
2022/03/28 05:54:41;;;;;;;30.88;16.00;;;5.70;99.90;;;;;;4960319;28;223432;-74
2022/03/28 05:57:08;;;;;;;26.50;13.75;;;5.70;99.90;;;;;;4996477;28;20045;-74
2022/03/28 05:59:34;;;;;;;22.83;11.88;;;5.70;99.90;;;;;;4959122;28;135349;-73
2022/03/28 06:02:00;;;;;;;21.77;11.35;;;5.70;99.90;;;;;;4982446;28;20057;-74
2022/03/28 06:04:26;;;;;;;22.35;11.18;;;5.70;99.90;;;;;;4949231;28;113687;-74
2022/03/28 06:06:53;;;;;;;17.75;9.20;;;5.70;99.90;;;;;;4991768;28;20858;-76
2022/03/28 06:09:19;;;;;;;21.42;9.63;;;5.70;99.90;;;;;;4994430;28;254297;-74
2022/03/28 06:11:45;;;;;;;17.08;8.52;;;5.70;99.90;;;;;;4991011;28;20033;-74
2022/03/28 06:14:11;;;;;;;19.17;8.85;;;5.70;99.90;;;;;;5005104;28;237869;-74
2022/03/28 06:16:37;;;;;;;17.65;8.40;;;5.70;99.90;;;;;;4971933;28;20037;-74
2022/03/28 06:19:03;;;;;;;16.95;8.27;;;5.70;99.90;;;;;;4971356;28;268756;-74
2022/03/28 06:21:30;;;;;;;18.40;7.63;;;5.70;99.90;;;;;;4970761;28;20474;-74
2022/03/28 06:24:00;;;;;;;15.63;7.07;;;5.70;99.90;;;;;;4984778;28;262693;-75
2022/03/28 06:26:26;;;;;;;14.55;6.90;;;5.60;99.90;;;;;;4986671;28;20037;-74
2022/03/28 06:28:52;;;;;;;18.90;6.60;;;5.70;99.90;;;;;;4982652;28;269838;-74
2022/03/28 06:31:19;;;;;;;16.90;6.85;;;5.60;99.90;;;;;;5002576;28;20052;-74
2022/03/28 06:33:45;;;;;;;16.23;7.03;;;5.60;99.90;;;;;;4996795;28;20057;-74
2022/03/28 06:36:11;;;;;;;16.00;6.60;;;5.60;99.90;;;;;;4972556;28;250554;-74
2022/03/28 06:38:37;;;;;;;17.63;6.45;;;5.70;99.90;;;;;;4978676;28;20412;-74
2022/03/28 06:41:04;;;;;;;14.57;7.05;;;5.70;99.90;;;;;;4963383;28;120920;-75
2022/03/28 06:43:30;;;;;;;17.33;7.47;;;5.70;99.90;;;;;;5002520;28;20058;-75
2022/03/28 06:45:57;;;;;;;16.75;7.40;;;5.80;99.90;;;;;;4972179;28;41006;-74
2022/03/28 06:48:23;;;;;;;21.20;9.18;;;5.80;99.90;;;;;;5014164;28;20056;-73
2022/03/28 06:50:50;;;;;;;23.17;10.00;;;5.80;99.90;;;;;;4974410;28;266717;-73
2022/03/28 06:53:16;;;;;;;27.75;11.63;;;5.90;99.90;;;;;;4998388;28;20050;-73
2022/03/28 06:55:42;;;;;;;25.65;10.18;;;5.90;99.90;;;;;;4982003;28;261467;-73
2022/03/28 06:58:09;;;;;;;25.70;11.18;;;6.00;99.90;;;;;;4999300;28;20061;-73
2022/03/28 07:00:35;;;;;;;29.55;12.32;;;6.00;99.90;;;;;;4971557;28;199249;-73
2022/03/28 07:03:01;;;;;;;30.60;11.77;;;6.10;99.90;;;;;;4996064;28;20428;-73
2022/03/28 07:05:28;;;;;;;30.25;14.00;;;6.10;99.90;;;;;;4955539;28;246399;-73
2022/03/28 07:07:56;;;;;;;27.35;12.38;;;6.20;99.90;;;;;;5002790;28;20042;-73
2022/03/28 07:10:22;;;;;;;41.83;16.85;;;6.20;99.90;;;;;;4954165;28;194181;-73
2022/03/28 07:12:51;;;;;;;43.63;19.42;;;6.30;99.90;;;;;;4990710;28;20407;-73
2022/03/28 07:15:17;;;;;;;31.88;14.90;;;6.30;99.90;;;;;;4970247;28;258011;-73
2022/03/28 07:17:46;;;;;;;39.17;18.65;;;6.40;99.90;;;;;;4991295;28;20245;-73
2022/03/28 07:20:12;;;;;;;45.85;21.05;;;6.40;99.90;;;;;;4968301;28;277666;-72
2022/03/28 07:22:39;;;;;;;51.13;23.77;;;6.50;99.90;;;;;;5005810;28;20407;-73
2022/03/28 07:25:06;;;;;;;51.85;22.88;;;6.50;99.90;;;;;;4968473;28;32304;-73
2022/03/28 07:27:40;;;;;;;58.03;25.48;;;6.50;99.90;;;;;;4997058;28;20438;-72
2022/03/28 07:30:08;;;;;;;48.47;22.65;;;6.50;99.90;;;;;;4970133;28;263161;-71
2022/03/28 07:32:34;;;;;;;57.60;25.63;;;6.50;99.90;;;;;;5000320;28;20064;-72
2022/03/28 07:35:02;;;;;;;48.17;23.92;;;6.60;99.90;;;;;;4975154;28;253355;-72
2022/03/28 07:37:28;;;;;;;47.83;25.98;;;6.70;99.90;;;;;;5008481;28;20045;-72
2022/03/28 07:39:55;;;;;;;46.92;26.48;;;6.70;99.90;;;;;;4958731;28;24953;-72
2022/03/28 07:42:21;;;;;;;41.88;23.73;;;6.70;99.90;;;;;;5022563;28;20053;-73
2022/03/28 07:44:48;;;;;;;38.67;23.77;;;6.60;99.90;;;;;;4971582;28;96373;-72
2022/03/28 07:47:14;;;;;;;42.65;25.45;;;6.60;99.90;;;;;;5024710;28;20426;-73
2022/03/28 07:49:41;;;;;;;39.88;24.50;;;6.60;99.90;;;;;;4972239;28;90012;-74
2022/03/28 07:52:08;;;;;;;38.90;23.48;;;6.60;99.90;;;;;;5006671;28;20522;-73
2022/03/28 07:54:36;;;;;;;41.03;24.15;;;6.70;99.90;;;;;;4970273;28;147103;-73
2022/03/28 07:57:03;;;;;;;40.00;23.98;;;6.80;99.90;;;;;;5015839;28;20058;-73
2022/03/28 07:59:29;;;;;;;44.42;25.45;;;6.80;99.90;;;;;;4971180;28;261140;-72
2022/03/28 08:01:55;;;;;;;43.78;24.95;;;6.80;99.90;;;;;;5019652;28;20049;-72
2022/03/28 08:04:21;;;;;;;40.33;23.65;;;6.80;99.90;;;;;;4963995;28;238948;-74
2022/03/28 08:06:48;;;;;;;36.72;23.10;;;6.90;99.90;;;;;;5007004;28;20049;-73
2022/03/28 08:09:14;;;;;;;38.58;23.42;;;7.00;99.90;;;;;;4999645;28;78328;-72
2022/03/28 08:11:42;;;;;;;39.42;24.00;;;7.00;99.90;;;;;;5005960;28;20104;-72
2022/03/28 08:14:08;;;;;;;39.40;23.48;;;7.10;99.90;;;;;;4994259;28;249226;-72
2022/03/28 08:16:34;;;;;;;33.08;20.38;;;7.10;99.90;;;;;;4976200;28;20450;-72
2022/03/28 08:19:00;;;;;;;29.17;17.40;;;7.20;99.90;;;;;;4989325;28;271481;-72
2022/03/28 08:21:27;;;;;;;24.48;15.60;;;7.30;99.90;;;;;;4993043;28;20049;-72
2022/03/28 08:23:53;;;;;;;22.20;14.65;;;7.40;99.90;;;;;;4985115;28;272773;-72
2022/03/28 08:26:20;;;;;;;22.63;15.02;;;7.30;99.90;;;;;;4981747;28;20053;-72
2022/03/28 08:28:46;;;;;;;24.02;15.50;;;7.40;99.90;;;;;;4988937;28;20472;-72
2022/03/28 08:31:12;;;;;;;21.70;15.05;;;7.50;99.90;;;;;;4981899;28;20064;-73
2022/03/28 08:33:39;;;;;;;20.48;14.93;;;7.60;99.90;;;;;;5002522;28;20057;-72
2022/03/28 08:36:05;;;;;;;22.02;14.75;;;7.60;99.90;;;;;;4991587;28;264335;-72
2022/03/28 08:38:34;;;;;;;22.70;14.70;;;7.60;99.90;;;;;;5004519;28;20065;-72
2022/03/28 08:41:01;;;;;;;22.60;16.25;;;7.70;99.90;;;;;;4978059;28;156023;-72
2022/03/28 08:43:28;;;;;;;22.58;14.80;;;7.80;99.90;;;;;;5007762;28;20399;-72
2022/03/28 08:45:55;;;;;;;20.85;13.27;;;7.80;99.90;;;;;;4976191;28;204405;-72
2022/03/28 08:48:22;;;;;;;21.23;13.65;;;7.90;99.90;;;;;;5007250;28;20049;-73
2022/03/28 08:50:52;;;;;;;20.20;12.30;;;7.80;99.90;;;;;;4976583;28;254800;-72
2022/03/28 08:53:18;;;;;;;17.20;11.33;;;7.90;99.90;;;;;;5005873;28;20423;-72
2022/03/28 08:55:45;;;;;;;20.75;12.88;;;7.80;99.90;;;;;;4981786;28;65930;-73
2022/03/28 08:58:13;;;;;;;18.60;12.35;;;7.90;99.90;;;;;;5004044;28;20045;-73
2022/03/28 09:00:40;;;;;;;22.83;13.50;;;7.80;99.90;;;;;;4966320;28;143029;-73
2022/03/28 09:03:06;;;;;;;20.33;12.68;;;7.80;99.90;;;;;;5004919;28;20767;-72
2022/03/28 09:05:38;;;;;;;19.42;12.63;;;7.80;99.90;;;;;;4969548;28;267308;-73
2022/03/28 09:08:07;;;;;;;18.38;12.95;;;7.80;99.90;;;;;;5012141;28;20054;-73
2022/03/28 09:10:34;;;;;;;21.92;13.18;;;7.80;99.90;;;;;;4983484;28;259484;-72
2022/03/28 09:13:08;;;;;;;19.90;13.07;;;7.80;99.90;;;;;;5004390;28;20050;-73
2022/03/28 09:15:55;;;;;;;20.95;14.30;;;7.90;99.90;;;;;;4979744;28;267777;-73
2022/03/28 09:18:30;;;;;;;19.88;13.27;;;8.10;99.90;;;;;;5005182;28;20054;-72
2022/03/28 09:21:02;;;;;;;22.92;14.23;;;8.10;99.90;;;;;;4989802;28;247019;-72
2022/03/28 09:23:44;;;;;;;19.38;13.07;;;8.30;99.90;;;;;;5005351;28;20511;-72
2022/03/28 09:26:16;;;;;;;22.85;14.05;;;8.20;99.90;;;;;;4963055;28;72481;-72
2022/03/28 09:28:53;;;;;;;17.98;12.75;;;8.40;99.90;;;;;;5005568;28;20504;-73
2022/03/28 09:31:20;;;;;;;17.38;12.48;;;8.40;99.90;;;;;;4978758;28;20038;-73
2022/03/28 09:34:11;;;;;;;21.00;12.98;;;8.40;99.90;;;;;;5003116;28;20049;-73
2022/03/28 09:36:48;;;;;;;23.33;14.43;;;8.50;99.90;;;;;;4984767;28;20052;-72
2022/03/28 09:39:30;;;;;;;19.35;14.23;;;8.50;99.90;;;;;;4991955;28;230053;-73
2022/03/28 09:42:03;;;;;;;20.75;14.43;;;8.50;99.90;;;;;;4957998;28;20045;-73
2022/03/28 09:44:36;;;;;;;21.60;14.52;;;8.50;99.90;;;;;;4968438;28;148891;-73
2022/03/28 09:47:12;;;;;;;20.60;13.85;;;8.50;99.90;;;;;;4992930;28;20050;-72
2022/03/28 09:49:43;;;;;;;22.50;14.65;;;8.60;99.90;;;;;;4955120;28;20518;-72
2022/03/28 09:52:11;;;;;;;23.27;15.07;;;8.70;99.90;;;;;;5012367;28;20087;-73
2022/03/28 09:54:50;;;;;;;23.40;14.85;;;8.80;99.90;;;;;;4966335;28;96489;-73
2022/03/28 09:57:20;;;;;;;23.70;14.40;;;8.90;99.90;;;;;;4981806;28;20052;-73
2022/03/28 09:59:46;;;;;;;19.92;13.80;;;9.00;99.90;;;;;;4969822;28;259889;-73
2022/03/28 10:02:26;;;;;;;21.17;14.35;;;9.00;99.90;;;;;;5026311;28;20537;-73
2022/03/28 10:04:56;;;;;;;18.67;13.65;;;9.10;99.90;;;;;;4955749;28;160449;-73
2022/03/28 10:07:22;;;;;;;21.42;13.65;;;9.20;99.90;;;;;;5010503;28;20057;-73
2022/03/28 10:09:50;;;;;;;21.67;14.65;;;9.20;99.90;;;;;;4974623;28;39129;-73
2022/03/28 10:12:19;;;;;;;20.75;13.90;;;9.20;99.90;;;;;;5011152;28;20479;-73
2022/03/28 10:14:53;;;;;;;20.33;14.02;;;9.20;99.90;;;;;;4965648;28;170347;-73
2022/03/28 10:17:19;;;;;;;19.70;13.80;;;9.30;99.90;;;;;;4973990;28;20045;-73
2022/03/28 10:19:46;;;;;;;19.83;12.75;;;9.40;99.90;;;;;;4965370;28;124190;-72
2022/03/28 10:22:21;;;;;;;18.02;12.68;;;9.40;99.90;;;;;;4997971;28;20053;-72
2022/03/28 10:24:50;;;;;;;17.52;11.93;;;9.50;99.90;;;;;;4967633;28;262362;-72
2022/03/28 10:27:17;;;;;;;17.92;11.95;;;9.60;99.90;;;;;;5026680;28;20547;-73
2022/03/28 10:29:45;;;;;;;17.92;11.73;;;9.70;99.90;;;;;;4964406;28;228106;-74
2022/03/28 10:32:17;;;;;;;16.58;11.60;;;9.90;99.90;;;;;;5028856;28;20057;-74
2022/03/28 10:34:46;;;;;;;18.70;11.10;;;10.00;99.90;;;;;;4968057;28;252294;-73
2022/03/28 10:37:40;;;;;;;17.20;10.95;;;10.20;99.90;;;;;;4998889;28;20058;-73
2022/03/28 10:40:11;;;;;;;16.25;10.43;;;10.40;99.90;;;;;;4969432;28;271819;-73
2022/03/28 10:42:39;;;;;;;15.25;9.32;;;10.50;99.90;;;;;;4996216;28;20065;-73
2022/03/28 10:45:11;;;;;;;17.38;9.77;;;10.50;99.90;;;;;;4968448;28;143672;-73
2022/03/28 10:47:45;;;;;;;14.93;9.27;;;10.50;99.90;;;;;;5004010;28;20491;-73
2022/03/28 10:50:13;;;;;;;14.25;8.73;;;10.60;99.90;;;;;;4943611;28;251963;-73
2022/03/28 10:53:03;;;;;;;14.88;9.32;;;10.80;99.90;;;;;;5010881;28;20053;-72
2022/03/28 10:55:49;;;;;;;13.93;8.88;;;11.00;99.90;;;;;;4983630;28;264322;-73
2022/03/28 10:58:34;;;;;;;13.30;8.55;;;11.20;99.90;;;;;;5034534;28;20049;-73
2022/03/28 11:01:09;;;;;;;14.00;9.40;;;11.40;99.90;;;;;;4979100;28;69196;-73
2022/03/28 11:03:36;;;;;;;14.40;9.18;;;11.60;99.90;;;;;;5002301;28;20050;-73
2022/03/28 11:06:02;;;;;;;13.25;8.70;;;11.70;99.90;;;;;;4946192;28;135796;-73
2022/03/28 11:08:40;;;;;;;14.85;9.68;;;11.90;99.90;;;;;;4983471;28;20042;-73
2022/03/28 11:11:33;;;;;;;14.05;8.98;;;12.30;99.90;;;;;;4982753;28;106423;-72
2022/03/28 11:14:03;;;;;;;13.00;9.25;;;12.40;99.90;;;;;;5001408;28;264300;-72
2022/03/28 11:16:43;;;;;;;15.25;9.48;;;12.20;99.90;;;;;;4975960;28;20037;-73
2022/03/28 11:20:11;;;;;;;14.77;9.32;;;12.20;99.90;;;;;;4993637;28;256711;-73
2022/03/28 11:22:40;;;;;;;13.55;9.20;;;12.50;99.90;;;;;;4842705;29;20048;-73
2022/03/28 11:25:30;;;;;;;12.05;8.45;;;12.50;99.90;;;;;;4886728;28;63522;-72
2022/03/28 11:28:12;;;;;;;14.73;9.57;;;12.70;99.90;;;;;;4908561;29;20486;-73
2022/03/28 11:30:44;;;;;;;14.10;9.75;;;12.60;99.90;;;;;;4893377;28;148062;-73
2022/03/28 11:33:32;;;;;;;13.38;10.05;;;12.90;99.90;;;;;;4911076;29;20197;-73
2022/03/28 11:36:00;;;;;;;14.45;10.73;;;13.50;99.90;;;;;;4909746;28;110858;-73
2022/03/28 11:38:28;;;;;;;14.68;9.80;;;14.40;99.90;;;;;;4915475;29;20063;-74
2022/03/28 11:40:57;;;;;;;14.57;9.75;;;15.20;99.90;;;;;;4891726;28;159832;-74
2022/03/28 11:43:38;;;;;;;15.63;10.40;;;15.40;99.90;;;;;;4909257;29;20067;-73
2022/03/28 11:46:34;;;;;;;14.75;10.30;;;15.50;99.90;;;;;;4873673;28;175857;-74
2022/03/28 11:49:01;;;;;;;13.27;9.40;;;15.20;99.90;;;;;;4904265;29;163918;-73
2022/03/28 11:51:30;;;;;;;14.40;9.50;;;15.20;99.90;;;;;;4865628;29;20403;-74
2022/03/28 11:54:05;;;;;;;13.55;9.90;;;15.70;99.90;;;;;;4895497;29;68310;-74
2022/03/28 11:56:35;;;;;;;14.80;10.20;;;16.00;99.50;;;;;;4868233;29;20123;-74
2022/03/28 11:59:05;;;;;;;12.90;9.98;;;16.70;99.90;;;;;;4936844;28;77413;-74
2022/03/28 12:01:32;;;;;;;;;;;17.50;99.30;;;;;;4914989;28;20055;-74
2022/03/28 12:03:59;;;;;;;15.52;9.60;;;17.80;96.40;;;;;;4938069;28;147440;-74
2022/03/28 12:06:34;;;;;;;14.95;9.23;;;18.10;97.30;;;;;;4952253;28;20648;-74
2022/03/28 12:09:04;;;;;;;12.32;8.95;;;18.30;97.20;;;;;;4991235;28;149315;-74
2022/03/28 12:11:31;;;;;;;15.77;10.02;;;19.00;96.50;;;;;;4952447;28;20045;-75
2022/03/28 12:13:58;;;;;;;13.60;9.77;;;19.50;91.50;;;;;;4970959;28;133717;-74
2022/03/28 12:16:24;;;;;;;13.77;9.60;;;19.10;88.10;;;;;;4907546;28;20448;-74
2022/03/28 12:18:53;;;;;;;14.15;9.63;;;18.90;90.40;;;;;;4957611;28;20046;-74
2022/03/28 12:21:20;;;;;;;12.82;9.60;;;19.10;87.70;;;;;;4922607;28;20528;-73
2022/03/28 12:23:47;;;;;;;14.88;9.70;;;19.20;84.10;;;;;;4983155;28;20124;-73
2022/03/28 12:26:13;;;;;;;12.15;9.27;;;19.40;84.20;;;;;;4957326;28;20469;-73
2022/03/28 12:28:43;;;;;;;13.23;9.55;;;19.70;81.50;;;;;;5006627;28;20049;-74
2022/03/28 12:31:09;;;;;;;14.93;9.77;;;19.90;81.30;;;;;;4977173;28;219324;-74
2022/03/28 12:33:41;;;;;;;13.57;9.20;;;20.20;77.50;;;;;;5006860;28;20053;-74
2022/03/28 12:36:14;;;;;;;12.90;9.50;;;20.50;76.20;;;;;;4993458;28;252526;-74
2022/03/28 12:38:42;;;;;;;12.27;9.38;;;20.50;71.60;;;;;;5007615;28;20500;-74
2022/03/28 12:41:15;;;;;;;13.45;9.00;;;20.20;69.50;;;;;;4978140;28;129145;-74
2022/03/28 12:43:52;;;;;;;14.55;9.15;;;19.90;69.40;;;;;;5005672;28;20058;-74